Time;durP1;ratioP1;P1;durP2;ratioP2;P2;SDS_P1;SDS_P2;PMS_P1;PMS_P2;Temp;Humidity;BMP_temperature;BMP_pressure;BME280_temperature;BME280_humidity;BME280_pressure;Samples;Min_cycle;Max_cycle;Signal;HPM_P1;HPM_P2
2021/06/12 00:01:43;;;;;;;7.00;4.75;;;22.50;99.90;;;;;;4145945;28;20502;-84
2021/06/12 00:03:44;;;;;;;6.85;5.03;;;22.40;99.90;;;;;;4129500;28;20510;-84
2021/06/12 00:05:45;;;;;;;6.18;4.53;;;22.40;99.90;;;;;;4147579;28;20109;-84
2021/06/12 00:07:46;;;;;;;7.00;4.68;;;22.40;99.90;;;;;;4129491;28;20061;-84
2021/06/12 00:09:46;;;;;;;6.18;4.93;;;22.30;99.90;;;;;;4146906;28;20037;-84
2021/06/12 00:11:47;;;;;;;7.68;5.13;;;22.30;99.90;;;;;;4125113;28;20034;-84
2021/06/12 00:13:48;;;;;;;7.50;5.32;;;22.30;99.90;;;;;;4129720;28;20046;-84
2021/06/12 00:15:50;;;;;;;9.77;5.38;;;22.30;99.90;;;;;;4145244;28;20028;-84
2021/06/12 00:17:52;;;;;;;4.95;3.95;;;22.20;99.90;;;;;;4146195;28;20085;-84
2021/06/12 00:19:54;;;;;;;5.37;4.07;;;22.20;99.90;;;;;;4145373;28;20034;-84
2021/06/12 00:21:55;;;;;;;;;;;22.20;99.90;;;;;;4127875;28;20042;-84
2021/06/12 00:23:56;;;;;;;7.35;4.32;;;22.20;99.90;;;;;;4144556;28;19985;-84
2021/06/12 00:25:56;;;;;;;5.20;3.85;;;22.20;99.90;;;;;;4129330;28;20062;-84
2021/06/12 00:27:59;;;;;;;6.43;4.25;;;22.20;99.90;;;;;;4129056;28;20042;-84
2021/06/12 00:30:00;;;;;;;8.05;4.60;;;22.20;99.90;;;;;;4145191;28;20415;-84
2021/06/12 00:32:00;;;;;;;12.18;4.70;;;22.20;99.90;;;;;;4128769;28;20035;-84
2021/06/12 00:34:25;;;;;;;6.53;4.93;;;22.20;99.90;;;;;;4128709;28;20423;-84
2021/06/12 00:36:26;;;;;;;6.95;4.50;;;22.20;99.90;;;;;;4128459;28;20034;-84
2021/06/12 00:38:26;;;;;;;8.10;4.53;;;22.20;99.90;;;;;;4129054;28;20073;-84
2021/06/12 00:40:27;;;;;;;6.90;3.80;;;22.20;99.90;;;;;;4146824;28;20034;-84
2021/06/12 00:42:29;;;;;;;5.60;4.00;;;22.10;99.90;;;;;;4143926;28;20109;-85
2021/06/12 00:44:29;;;;;;;5.43;3.77;;;22.10;99.90;;;;;;4124289;28;20603;-84
2021/06/12 00:46:30;;;;;;;6.75;4.38;;;22.10;99.90;;;;;;4162074;28;20121;-85
2021/06/12 00:48:31;;;;;;;6.20;4.70;;;22.10;99.90;;;;;;4129166;28;20085;-84
2021/06/12 00:50:32;;;;;;;5.30;3.67;;;22.10;99.90;;;;;;4143375;28;20034;-84
2021/06/12 00:52:36;;;;;;;5.97;4.03;;;22.10;99.90;;;;;;4124380;28;20047;-85
2021/06/12 00:54:36;;;;;;;5.80;3.85;;;22.10;99.90;;;;;;4128531;28;20595;-84
2021/06/12 00:56:37;;;;;;;5.57;3.63;;;22.10;99.90;;;;;;4128884;28;20030;-84
2021/06/12 00:58:42;;;;;;;5.93;3.85;;;22.10;99.90;;;;;;4145813;28;20112;-84
2021/06/12 01:00:43;;;;;;;5.95;4.25;;;22.10;99.90;;;;;;4128624;28;20049;-84
2021/06/12 01:02:44;;;;;;;6.65;3.90;;;22.10;99.90;;;;;;4126932;28;20506;-84
2021/06/12 01:04:44;;;;;;;7.13;4.20;;;22.10;99.90;;;;;;4128546;28;20217;-84
2021/06/12 01:06:51;;;;;;;5.35;3.65;;;22.10;99.90;;;;;;4128373;28;20027;-85
2021/06/12 01:08:53;;;;;;;6.78;4.28;;;22.10;99.90;;;;;;4128049;28;20069;-84
2021/06/12 01:10:53;;;;;;;5.80;3.92;;;22.10;99.90;;;;;;4138343;28;20031;-84
2021/06/12 01:13:26;;;;;;;5.20;3.92;;;22.10;99.90;;;;;;4144168;28;20120;-84
2021/06/12 01:15:59;;;;;;;7.13;4.40;;;22.10;99.90;;;;;;4145585;28;20419;-84
2021/06/12 01:18:08;;;;;;;6.13;4.13;;;22.10;99.90;;;;;;4124750;28;20041;-84
2021/06/12 01:20:20;;;;;;;7.13;4.38;;;21.90;99.90;;;;;;4144806;28;20046;-84
2021/06/12 01:22:39;;;;;;;6.95;3.90;;;21.80;99.90;;;;;;4127975;28;20026;-84
2021/06/12 01:25:04;;;;;;;3.78;2.72;;;21.70;99.90;;;;;;4128506;28;20647;-84
2021/06/12 01:27:13;;;;;;;6.28;3.42;;;21.60;99.90;;;;;;4139533;28;20018;-84
2021/06/12 01:29:35;;;;;;;7.15;3.05;;;21.60;99.90;;;;;;4127744;28;20034;-85
2021/06/12 01:31:38;;;;;;;5.30;3.42;;;21.60;99.90;;;;;;4136340;28;20035;-85
2021/06/12 01:33:43;;;;;;;4.68;3.10;;;21.50;99.90;;;;;;4140054;28;20034;-84
2021/06/12 01:35:59;;;;;;;6.10;3.33;;;21.50;99.90;;;;;;4117463;28;20050;-84
2021/06/12 01:38:02;;;;;;;5.82;2.88;;;21.40;99.90;;;;;;4118339;28;20447;-84
2021/06/12 01:40:09;;;;;;;4.97;3.17;;;21.40;99.90;;;;;;4123127;28;20058;-84
2021/06/12 01:42:13;;;;;;;6.88;2.80;;;21.40;99.90;;;;;;4120512;28;20046;-84
2021/06/12 01:44:16;;;;;;;3.22;2.22;;;21.30;99.90;;;;;;4122316;28;20046;-84
2021/06/12 01:46:17;;;;;;;4.35;2.30;;;21.30;99.90;;;;;;4122074;28;20119;-84
2021/06/12 01:48:19;;;;;;;5.10;2.33;;;21.20;99.90;;;;;;4137667;28;20046;-84
2021/06/12 01:50:22;;;;;;;4.25;2.80;;;21.20;99.90;;;;;;4118980;28;20070;-84
2021/06/12 01:52:24;;;;;;;5.25;2.10;;;21.20;99.90;;;;;;4116983;28;20149;-84
2021/06/12 01:54:26;;;;;;;3.50;2.30;;;21.20;99.90;;;;;;4154292;28;20654;-84
2021/06/12 01:56:28;;;;;;;2.38;1.98;;;21.10;99.90;;;;;;4119069;28;20039;-84
2021/06/12 01:58:29;;;;;;;4.25;2.10;;;21.10;99.90;;;;;;4118668;28;20027;-84
2021/06/12 02:00:30;;;;;;;4.22;2.58;;;21.20;99.90;;;;;;4123330;28;20045;-84
2021/06/12 02:02:32;;;;;;;5.63;3.03;;;21.10;99.90;;;;;;4121436;28;20458;-84
2021/06/12 02:04:38;;;;;;;2.90;2.05;;;21.10;99.90;;;;;;4122942;28;20104;-85
2021/06/12 02:06:41;;;;;;;5.00;2.72;;;21.00;99.90;;;;;;4135636;28;20267;-84
2021/06/12 02:08:44;;;;;;;4.18;2.55;;;21.10;99.90;;;;;;4119839;28;20042;-84
2021/06/12 02:10:49;;;;;;;5.10;2.95;;;21.10;99.90;;;;;;4136714;28;20118;-84
2021/06/12 02:12:51;;;;;;;2.90;2.08;;;21.00;99.90;;;;;;4117276;28;20038;-84
2021/06/12 02:14:53;;;;;;;2.85;2.33;;;21.10;99.90;;;;;;4122075;28;20518;-84
2021/06/12 02:16:55;;;;;;;4.43;2.30;;;21.10;99.90;;;;;;4138999;28;20033;-84
2021/06/12 02:18:58;;;;;;;;;;;21.10;99.90;;;;;;4120563;28;20057;-85
2021/06/12 02:21:00;;;;;;;4.72;2.55;;;21.10;99.90;;;;;;4123207;28;19922;-85
2021/06/12 02:23:03;;;;;;;2.80;2.20;;;21.10;99.90;;;;;;4136332;28;20080;-85
2021/06/12 02:25:05;;;;;;;2.60;2.08;;;21.10;99.90;;;;;;4122837;28;20042;-84
2021/06/12 02:27:08;;;;;;;3.92;2.53;;;21.20;99.90;;;;;;4135695;28;20101;-84
2021/06/12 02:29:12;;;;;;;4.25;2.17;;;21.20;99.90;;;;;;4134127;28;20095;-84
2021/06/12 02:31:21;;;;;;;2.92;2.20;;;21.20;99.90;;;;;;4138340;28;20044;-84
2021/06/12 02:33:24;;;;;;;3.13;2.00;;;21.20;99.90;;;;;;4117838;28;20054;-84
2021/06/12 02:35:25;;;;;;;2.40;1.88;;;21.30;99.90;;;;;;4141076;28;20109;-85
2021/06/12 02:37:26;;;;;;;3.95;2.30;;;21.20;99.90;;;;;;4136088;28;20038;-84
2021/06/12 02:39:26;;;;;;;4.50;2.60;;;21.30;99.90;;;;;;4120908;28;20415;-84
2021/06/12 02:41:27;;;;;;;3.95;2.30;;;21.30;99.90;;;;;;4116241;28;20034;-84
2021/06/12 02:43:28;;;;;;;4.43;2.38;;;21.30;99.90;;;;;;4117783;28;20503;-84
2021/06/12 02:45:29;;;;;;;2.83;2.33;;;21.30;99.90;;;;;;4119661;28;20034;-84
2021/06/12 02:47:31;;;;;;;2.45;2.08;;;21.30;99.90;;;;;;4137411;28;20037;-84
2021/06/12 02:49:36;;;;;;;2.70;1.87;;;21.30;99.90;;;;;;4122323;28;20039;-84
2021/06/12 02:51:42;;;;;;;3.92;2.40;;;21.30;99.90;;;;;;4139506;28;20057;-84
2021/06/12 02:53:44;;;;;;;5.25;3.08;;;21.30;99.90;;;;;;4120638;28;20038;-84
2021/06/12 02:55:50;;;;;;;2.65;2.00;;;21.30;99.90;;;;;;4123026;28;20030;-84
2021/06/12 02:57:53;;;;;;;3.88;2.30;;;21.30;99.90;;;;;;4137760;28;20056;-84
2021/06/12 02:59:56;;;;;;;6.68;2.60;;;21.30;99.90;;;;;;4121782;28;20050;-84
2021/06/12 03:01:59;;;;;;;3.67;2.40;;;21.30;99.90;;;;;;4139102;28;20033;-84
2021/06/12 03:04:00;;;;;;;;;;;21.30;99.90;;;;;;4138364;28;20030;-84
2021/06/12 03:06:02;;;;;;;3.45;2.25;;;21.30;99.90;;;;;;4139351;28;19998;-84
2021/06/12 03:08:04;;;;;;;3.70;2.75;;;21.30;99.90;;;;;;4120367;28;20062;-84
2021/06/12 03:10:05;;;;;;;3.00;2.15;;;21.30;99.90;;;;;;4122568;28;20396;-84
2021/06/12 03:12:08;;;;;;;4.22;2.22;;;21.30;99.90;;;;;;4125283;28;24956;-84
2021/06/12 03:14:12;;;;;;;2.83;2.20;;;21.20;99.90;;;;;;4133380;28;20060;-84
2021/06/12 03:16:17;;;;;;;3.55;2.58;;;21.20;99.90;;;;;;4121637;28;20116;-84
2021/06/12 03:18:18;;;;;;;3.80;2.80;;;21.20;99.90;;;;;;4123000;28;20422;-84
2021/06/12 03:20:20;;;;;;;3.40;2.58;;;21.20;99.90;;;;;;4119452;28;20050;-84
2021/06/12 03:22:22;;;;;;;3.05;2.50;;;21.20;99.90;;;;;;4122734;28;20061;-84
2021/06/12 03:24:24;;;;;;;4.40;2.50;;;21.20;99.90;;;;;;4136973;28;20041;-84
2021/06/12 03:26:25;;;;;;;4.07;3.00;;;21.20;99.90;;;;;;4141899;28;20049;-84
2021/06/12 03:28:29;;;;;;;5.30;3.17;;;21.10;99.90;;;;;;4123284;28;20125;-84
2021/06/12 03:30:30;;;;;;;4.38;2.67;;;21.10;99.90;;;;;;4143073;28;20118;-84
2021/06/12 03:32:31;;;;;;;5.22;3.17;;;21.10;99.90;;;;;;4119640;28;20030;-84
2021/06/12 03:34:34;;;;;;;4.95;3.13;;;21.10;99.90;;;;;;4126202;28;20414;-84
2021/06/12 03:36:35;;;;;;;5.13;2.65;;;21.00;99.90;;;;;;4138209;28;20043;-84
2021/06/12 03:38:36;;;;;;;4.70;2.60;;;21.00;99.90;;;;;;4140491;28;20069;-84
2021/06/12 03:40:37;;;;;;;5.95;3.08;;;20.90;99.90;;;;;;4141782;28;20494;-84
2021/06/12 03:42:38;;;;;;;5.35;2.85;;;20.90;99.90;;;;;;4122933;28;20038;-84
2021/06/12 03:44:39;;;;;;;4.85;2.95;;;20.90;99.90;;;;;;4126425;28;20052;-84
2021/06/12 03:46:46;;;;;;;6.00;3.13;;;20.80;99.90;;;;;;4123234;28;20109;-84
2021/06/12 03:48:49;;;;;;;4.72;3.20;;;20.80;99.90;;;;;;4137346;28;20510;-85
2021/06/12 03:50:54;;;;;;;2.83;2.40;;;20.80;99.90;;;;;;4124098;28;20038;-85
2021/06/12 03:52:56;;;;;;;4.28;2.88;;;20.80;99.90;;;;;;4122820;28;20394;-84
2021/06/12 03:54:57;;;;;;;4.88;3.17;;;20.80;99.90;;;;;;4139311;28;20495;-84
2021/06/12 03:56:58;;;;;;;6.53;2.90;;;20.80;99.90;;;;;;4125621;28;20041;-84
2021/06/12 03:59:00;;;;;;;4.18;3.17;;;20.80;99.90;;;;;;4123700;28;20434;-84
2021/06/12 04:01:01;;;;;;;5.43;3.30;;;20.80;99.90;;;;;;4140477;28;20038;-84
2021/06/12 04:03:02;;;;;;;5.35;3.10;;;20.70;99.90;;;;;;4136999;28;20133;-84
2021/06/12 04:05:04;;;;;;;5.30;3.15;;;20.70;99.90;;;;;;4119758;28;20039;-85
2021/06/12 04:07:05;;;;;;;6.32;3.13;;;20.70;99.90;;;;;;4124256;28;20066;-84
2021/06/12 04:09:06;;;;;;;5.00;3.22;;;20.70;99.90;;;;;;4121886;28;20118;-84
2021/06/12 04:11:07;;;;;;;4.55;3.00;;;20.60;99.90;;;;;;4124380;28;20064;-84
2021/06/12 04:13:08;;;;;;;8.73;3.55;;;20.60;99.90;;;;;;4138429;28;20034;-84
2021/06/12 04:15:09;;;;;;;7.05;3.10;;;20.50;99.90;;;;;;4124407;28;20481;-84
2021/06/12 04:17:10;;;;;;;7.78;3.78;;;20.50;99.90;;;;;;4121041;28;20047;-84
2021/06/12 04:19:11;;;;;;;4.63;3.10;;;20.40;99.90;;;;;;4122236;28;20474;-84
2021/06/12 04:21:11;;;;;;;5.15;3.40;;;20.40;99.90;;;;;;4138862;28;20038;-84
2021/06/12 04:23:12;;;;;;;4.70;3.45;;;20.30;99.90;;;;;;4137860;28;20188;-84
2021/06/12 04:25:13;;;;;;;5.35;3.35;;;20.30;99.90;;;;;;4124598;28;20038;-84
2021/06/12 04:27:13;;;;;;;6.22;3.33;;;20.20;99.90;;;;;;4122253;28;20038;-84
2021/06/12 04:29:14;;;;;;;5.50;3.72;;;20.20;99.90;;;;;;4139824;28;20037;-84
2021/06/12 04:31:15;;;;;;;6.28;3.88;;;20.20;99.90;;;;;;4124873;28;20364;-84
2021/06/12 04:33:15;;;;;;;10.77;3.83;;;20.20;99.90;;;;;;4120610;28;20491;-84
2021/06/12 04:35:16;;;;;;;6.75;4.20;;;20.10;99.90;;;;;;4124214;28;20355;-84
2021/06/12 04:37:17;;;;;;;7.80;4.13;;;20.20;99.90;;;;;;4142033;28;20037;-84
2021/06/12 04:39:18;;;;;;;7.38;3.83;;;20.20;99.90;;;;;;4121097;28;20043;-84
2021/06/12 04:41:18;;;;;;;7.72;3.80;;;20.10;99.90;;;;;;4120784;28;20044;-84
2021/06/12 04:43:19;;;;;;;7.03;3.22;;;20.10;99.90;;;;;;4122089;28;20586;-84
2021/06/12 04:45:21;;;;;;;6.40;4.75;;;20.10;99.90;;;;;;4124415;28;20038;-85
2021/06/12 04:47:21;;;;;;;5.97;3.92;;;20.10;99.90;;;;;;4141389;28;20038;-84
2021/06/12 04:49:22;;;;;;;5.05;3.40;;;20.10;99.90;;;;;;4136771;28;20045;-84
2021/06/12 04:51:23;;;;;;;5.82;3.60;;;20.10;99.90;;;;;;4141603;28;20121;-84
2021/06/12 04:53:23;;;;;;;4.90;3.38;;;20.10;99.90;;;;;;4125304;28;20054;-84
2021/06/12 04:55:24;;;;;;;8.95;4.10;;;20.10;99.90;;;;;;4141959;28;20280;-84
2021/06/12 04:57:24;;;;;;;6.40;3.58;;;20.10;99.90;;;;;;4125382;28;20034;-84
2021/06/12 04:59:26;;;;;;;8.57;4.70;;;20.20;99.90;;;;;;4124982;28;20113;-84
2021/06/12 05:01:26;;;;;;;9.10;4.43;;;20.10;99.90;;;;;;4140439;28;20088;-84
2021/06/12 05:03:27;;;;;;;8.98;4.95;;;20.10;99.90;;;;;;4125235;28;20042;-84
2021/06/12 05:05:28;;;;;;;6.20;3.90;;;20.10;99.90;;;;;;4125103;28;20045;-84
2021/06/12 05:07:28;;;;;;;5.35;3.63;;;20.10;99.90;;;;;;4124175;28;20042;-84
2021/06/12 05:09:29;;;;;;;7.00;4.20;;;20.10;99.90;;;;;;4140548;28;20038;-84
2021/06/12 05:11:29;;;;;;;7.47;3.88;;;20.10;99.90;;;;;;4124960;28;20042;-84
2021/06/12 05:13:34;;;;;;;5.10;3.70;;;20.20;99.90;;;;;;4141396;28;20034;-84
2021/06/12 05:15:35;;;;;;;6.82;4.30;;;20.20;99.90;;;;;;4123211;28;20038;-84
2021/06/12 05:17:41;;;;;;;7.35;4.53;;;20.20;99.90;;;;;;4120826;28;20491;-84
2021/06/12 05:19:41;;;;;;;8.10;4.50;;;20.20;99.90;;;;;;4124764;28;20038;-84
2021/06/12 05:21:45;;;;;;;6.95;4.05;;;20.20;99.90;;;;;;4121824;28;20138;-84
2021/06/12 05:23:45;;;;;;;8.23;5.13;;;20.30;99.90;;;;;;4127652;28;20045;-84
2021/06/12 05:25:46;;;;;;;9.30;4.40;;;20.30;99.90;;;;;;4125233;28;20034;-84
2021/06/12 05:27:47;;;;;;;10.05;5.07;;;20.30;99.90;;;;;;4142088;28;20498;-84
2021/06/12 05:29:48;;;;;;;5.97;3.92;;;20.20;99.90;;;;;;4129419;28;20128;-84
2021/06/12 05:31:49;;;;;;;8.20;4.57;;;20.20;99.90;;;;;;4127244;28;20040;-84
2021/06/12 05:33:49;;;;;;;9.75;5.28;;;20.30;99.90;;;;;;4125577;28;20054;-85
2021/06/12 05:35:51;;;;;;;9.82;6.20;;;20.30;99.90;;;;;;4119079;28;20069;-84
2021/06/12 05:37:52;;;;;;;10.13;6.50;;;20.30;99.90;;;;;;4124999;28;20045;-84
2021/06/12 05:39:53;;;;;;;8.60;5.60;;;20.20;99.90;;;;;;4142492;28;20041;-85
2021/06/12 05:41:53;;;;;;;9.43;5.35;;;20.30;99.90;;;;;;4131417;28;20030;-85
2021/06/12 05:43:54;;;;;;;11.73;7.03;;;20.30;99.90;;;;;;4124936;28;20454;-85
2021/06/12 05:45:55;;;;;;;11.25;6.45;;;20.30;99.90;;;;;;4125564;28;20113;-85
2021/06/12 05:47:55;;;;;;;11.18;5.90;;;20.30;99.90;;;;;;4123204;28;20050;-85
2021/06/12 05:49:56;;;;;;;12.20;6.28;;;20.40;99.90;;;;;;4126248;28;20037;-85
2021/06/12 05:51:57;;;;;;;13.05;6.93;;;20.50;99.90;;;;;;4145760;28;20029;-85
2021/06/12 05:53:57;;;;;;;11.43;6.60;;;20.40;99.90;;;;;;4124028;28;20125;-85
2021/06/12 05:55:58;;;;;;;12.00;6.82;;;20.40;99.90;;;;;;4128662;28;20038;-84
2021/06/12 05:57:59;;;;;;;9.52;5.47;;;20.50;99.90;;;;;;4141646;28;20040;-84
2021/06/12 06:00:00;;;;;;;11.95;6.47;;;20.50;99.90;;;;;;4121634;28;20035;-84
2021/06/12 06:02:00;;;;;;;11.60;7.10;;;20.60;99.90;;;;;;4126019;28;20026;-84
2021/06/12 06:04:01;;;;;;;12.60;6.85;;;20.60;99.90;;;;;;4128405;28;20718;-84
2021/06/12 06:06:01;;;;;;;15.82;7.80;;;20.50;99.90;;;;;;4123469;28;20454;-85
2021/06/12 06:08:02;;;;;;;14.75;7.55;;;20.40;99.90;;;;;;4145582;28;20034;-85
2021/06/12 06:10:03;;;;;;;15.30;8.27;;;20.40;99.90;;;;;;4142996;28;20463;-85
2021/06/12 06:12:05;;;;;;;13.55;6.22;;;20.30;99.90;;;;;;4129193;28;20046;-85
2021/06/12 06:14:05;;;;;;;11.80;6.95;;;20.40;99.90;;;;;;4129216;28;20034;-85
2021/06/12 06:16:06;;;;;;;10.05;6.10;;;20.40;99.90;;;;;;4141683;28;20041;-84
2021/06/12 06:18:07;;;;;;;12.25;6.43;;;20.40;99.90;;;;;;4124554;28;20282;-80
2021/06/12 06:20:09;;;;;;;11.40;6.10;;;20.50;99.90;;;;;;4125487;28;20046;-80
2021/06/12 06:22:10;;;;;;;9.98;6.35;;;20.50;99.90;;;;;;4138519;28;20527;-80
2021/06/12 06:24:10;;;;;;;9.98;6.20;;;20.60;99.90;;;;;;4125666;28;20117;-80
2021/06/12 06:26:11;;;;;;;14.13;7.32;;;20.60;99.90;;;;;;4124961;28;20042;-80
2021/06/12 06:28:11;;;;;;;12.75;8.25;;;20.60;99.90;;;;;;4138206;28;20039;-80
2021/06/12 06:30:13;;;;;;;12.77;7.88;;;20.60;99.90;;;;;;4123816;28;20034;-80
2021/06/12 06:32:13;;;;;;;15.40;8.45;;;20.50;99.90;;;;;;4125485;28;20042;-80
2021/06/12 06:34:14;;;;;;;13.25;7.18;;;20.40;99.90;;;;;;4125050;28;20046;-80
2021/06/12 06:36:15;;;;;;;13.40;8.57;;;20.40;99.90;;;;;;4137668;28;20033;-80
2021/06/12 06:38:15;;;;;;;10.55;6.93;;;20.50;99.90;;;;;;4124224;28;20451;-80
2021/06/12 06:40:16;;;;;;;19.05;7.57;;;20.50;99.90;;;;;;4122597;28;20038;-80
2021/06/12 06:42:17;;;;;;;14.68;8.90;;;20.50;99.90;;;;;;4141488;28;20049;-81
2021/06/12 06:44:17;;;;;;;12.30;8.23;;;20.40;99.90;;;;;;4140563;28;20442;-80
2021/06/12 06:46:18;;;;;;;15.43;9.00;;;20.40;99.90;;;;;;4139643;28;20298;-80
2021/06/12 06:48:19;;;;;;;14.80;8.93;;;20.40;99.90;;;;;;4129231;28;20805;-80
2021/06/12 06:50:20;;;;;;;12.85;7.10;;;20.40;99.90;;;;;;4141090;28;20070;-80
2021/06/12 06:52:20;;;;;;;15.75;9.70;;;20.40;99.90;;;;;;4142593;28;20117;-80
2021/06/12 06:54:21;;;;;;;13.35;8.13;;;20.40;99.90;;;;;;4141084;28;20402;-80
2021/06/12 06:56:22;;;;;;;12.07;8.63;;;20.40;99.90;;;;;;4137477;28;20045;-80
2021/06/12 06:58:22;;;;;;;10.50;8.02;;;20.40;99.90;;;;;;4143468;28;20046;-82
2021/06/12 07:00:25;;;;;;;11.50;8.30;;;20.40;99.90;;;;;;4125811;28;20033;-81
2021/06/12 07:02:26;;;;;;;11.82;7.25;;;20.40;99.90;;;;;;4125299;28;20038;-82
2021/06/12 07:04:27;;;;;;;11.02;7.75;;;20.40;99.90;;;;;;4125315;28;20608;-82
2021/06/12 07:06:27;;;;;;;12.10;8.07;;;20.50;99.90;;;;;;4117677;28;20129;-82
2021/06/12 07:08:29;;;;;;;11.23;7.78;;;20.50;99.90;;;;;;4145138;28;20628;-81
2021/06/12 07:10:29;;;;;;;18.10;9.88;;;20.50;99.90;;;;;;4143794;28;20398;-82
2021/06/12 07:12:30;;;;;;;16.20;9.85;;;20.40;99.90;;;;;;4141805;28;20064;-82
2021/06/12 07:14:31;;;;;;;11.88;7.80;;;20.40;99.90;;;;;;4143803;28;20057;-81
2021/06/12 07:16:32;;;;;;;13.38;8.13;;;20.50;99.90;;;;;;4146908;28;20498;-82
2021/06/12 07:18:32;;;;;;;11.30;8.43;;;20.50;99.90;;;;;;4135955;28;20046;-82
2021/06/12 07:20:33;;;;;;;14.77;9.45;;;20.50;99.90;;;;;;4120377;28;20045;-82
2021/06/12 07:22:34;;;;;;;13.35;7.95;;;20.40;99.90;;;;;;4121332;28;20030;-81
2021/06/12 07:24:34;;;;;;;8.63;6.93;;;20.40;99.90;;;;;;4140691;28;20034;-82
2021/06/12 07:26:35;;;;;;;12.75;8.73;;;20.40;99.90;;;;;;4126442;28;20228;-81
2021/06/12 07:28:35;;;;;;;12.05;8.65;;;20.40;99.90;;;;;;4135613;28;20042;-80
2021/06/12 07:30:40;;;;;;;12.38;8.07;;;20.40;99.90;;;;;;4121829;28;20038;-81
2021/06/12 07:32:41;;;;;;;12.77;9.23;;;20.40;99.90;;;;;;4141033;28;20058;-81
2021/06/12 07:34:42;;;;;;;13.52;8.57;;;20.40;99.90;;;;;;4135840;28;20406;-80
2021/06/12 07:36:42;;;;;;;14.48;9.75;;;20.40;99.90;;;;;;4140415;28;20062;-81
2021/06/12 07:38:43;;;;;;;11.82;8.48;;;20.40;99.90;;;;;;4142486;28;20555;-81
2021/06/12 07:40:43;;;;;;;11.77;8.57;;;20.40;99.90;;;;;;4140834;28;20342;-80
2021/06/12 07:42:44;;;;;;;12.65;8.27;;;20.40;99.90;;;;;;4123790;28;20042;-81
2021/06/12 07:44:45;;;;;;;11.20;7.50;;;20.40;99.90;;;;;;4137080;28;20038;-80
2021/06/12 07:46:45;;;;;;;11.45;7.85;;;20.40;99.90;;;;;;4121030;28;20034;-81
2021/06/12 07:48:46;;;;;;;17.10;9.70;;;20.40;99.90;;;;;;4135753;28;20120;-80
2021/06/12 07:50:47;;;;;;;11.88;8.35;;;20.40;99.90;;;;;;4135333;28;20030;-80
2021/06/12 07:52:47;;;;;;;13.68;8.57;;;20.40;99.90;;;;;;4138292;28;20045;-80
2021/06/12 07:54:48;;;;;;;12.88;7.72;;;20.40;99.90;;;;;;4125536;28;20058;-80
2021/06/12 07:56:49;;;;;;;17.58;9.25;;;20.50;99.90;;;;;;4140331;28;20038;-80
2021/06/12 07:58:49;;;;;;;16.27;10.48;;;20.40;99.90;;;;;;4126573;28;20081;-82
2021/06/12 08:00:50;;;;;;;15.45;10.63;;;20.30;99.90;;;;;;4138296;28;20046;-81
2021/06/12 08:02:50;;;;;;;13.27;9.23;;;20.30;99.90;;;;;;4142378;28;20499;-81
2021/06/12 08:04:51;;;;;;;15.95;10.65;;;20.20;99.90;;;;;;4140777;28;20030;-80
2021/06/12 08:06:52;;;;;;;15.00;8.73;;;20.20;99.90;;;;;;4130193;28;20861;-80
2021/06/12 08:08:53;;;;;;;13.48;9.75;;;20.20;99.90;;;;;;4126777;28;20038;-80
2021/06/12 08:10:53;;;;;;;17.15;10.27;;;20.20;99.90;;;;;;4126201;28;20031;-80
2021/06/12 08:13:07;;;;;;;14.70;8.90;;;20.20;99.90;;;;;;4129027;28;20057;-80
2021/06/12 08:15:09;;;;;;;15.07;10.68;;;20.20;99.90;;;;;;4142340;28;20080;-80
2021/06/12 08:17:10;;;;;;;15.93;10.90;;;20.10;99.90;;;;;;4117949;28;20077;-80
2021/06/12 08:19:11;;;;;;;12.98;9.00;;;20.10;99.90;;;;;;4138567;28;20487;-81
2021/06/12 08:21:11;;;;;;;11.25;8.68;;;20.10;99.90;;;;;;4129830;28;20037;-81
2021/06/12 08:23:12;;;;;;;12.75;9.70;;;20.20;99.90;;;;;;4142608;28;20510;-81
2021/06/12 08:25:13;;;;;;;13.13;10.05;;;20.20;99.90;;;;;;4147476;28;20418;-80
2021/06/12 08:27:13;;;;;;;13.50;10.90;;;20.30;99.90;;;;;;4134121;28;20038;-80
2021/06/12 08:29:20;;;;;;;16.73;10.50;;;20.30;99.90;;;;;;4145557;28;20033;-80
2021/06/12 08:31:21;;;;;;;14.43;10.23;;;20.30;99.90;;;;;;4144225;28;20026;-80
2021/06/12 08:33:21;;;;;;;15.02;10.65;;;20.40;99.90;;;;;;4125161;28;20487;-80
2021/06/12 08:35:22;;;;;;;12.40;9.18;;;20.40;99.90;;;;;;4143305;28;20022;-80
2021/06/12 08:37:23;;;;;;;15.45;10.77;;;20.50;99.90;;;;;;4139596;28;20042;-80
2021/06/12 08:39:24;;;;;;;14.57;10.65;;;20.60;99.90;;;;;;4123763;28;20026;-80
2021/06/12 08:41:24;;;;;;;12.50;8.95;;;20.70;99.90;;;;;;4126082;28;20049;-81
2021/06/12 08:43:29;;;;;;;16.42;9.25;;;20.70;99.90;;;;;;4127937;28;20538;-80
2021/06/12 08:45:30;;;;;;;12.55;8.98;;;20.80;99.90;;;;;;4142682;28;20124;-80
2021/06/12 08:47:35;;;;;;;16.05;10.48;;;20.90;99.90;;;;;;4138610;28;20287;-80
2021/06/12 08:49:38;;;;;;;13.88;9.27;;;21.00;99.90;;;;;;4142222;28;20473;-80
2021/06/12 08:51:38;;;;;;;15.35;10.15;;;21.10;99.90;;;;;;4125541;28;20030;-80
2021/06/12 08:53:39;;;;;;;14.82;11.10;;;21.10;99.90;;;;;;4138549;28;20037;-80
2021/06/12 08:55:40;;;;;;;14.18;9.90;;;21.20;99.90;;;;;;4148377;28;20037;-80
2021/06/12 08:57:41;;;;;;;17.00;11.57;;;21.20;99.90;;;;;;4143066;28;20096;-80
2021/06/12 08:59:42;;;;;;;14.45;9.93;;;21.20;99.90;;;;;;4147579;28;20033;-80
2021/06/12 09:01:49;;;;;;;16.27;11.00;;;21.20;99.90;;;;;;4129284;28;20581;-80
2021/06/12 09:03:50;;;;;;;12.73;9.48;;;21.30;99.90;;;;;;4150835;28;20025;-80
2021/06/12 09:05:58;;;;;;;14.07;9.32;;;21.30;99.90;;;;;;4146104;28;20033;-80
2021/06/12 09:08:06;;;;;;;11.90;8.88;;;21.30;99.90;;;;;;4145793;28;20034;-80
2021/06/12 09:10:08;;;;;;;11.52;8.55;;;21.40;99.90;;;;;;4144846;28;20058;-80
2021/06/12 09:12:09;;;;;;;13.05;8.65;;;21.40;99.90;;;;;;4149350;28;20402;-80
2021/06/12 09:14:09;;;;;;;11.70;8.75;;;21.40;99.90;;;;;;4145050;28;20038;-80
2021/06/12 09:16:26;;;;;;;12.95;9.43;;;21.50;99.90;;;;;;4131179;28;20517;-80
2021/06/12 09:18:41;;;;;;;14.23;9.73;;;21.50;99.90;;;;;;4141835;28;20033;-80
2021/06/12 09:20:43;;;;;;;15.95;11.45;;;21.50;99.90;;;;;;4128391;28;20072;-80
2021/06/12 09:22:44;;;;;;;13.10;9.70;;;21.50;99.90;;;;;;4140026;28;20062;-80
2021/06/12 09:24:49;;;;;;;12.50;9.05;;;21.40;99.90;;;;;;4146265;28;20045;-80
2021/06/12 09:26:59;;;;;;;12.15;9.23;;;21.50;99.90;;;;;;4145883;28;20486;-80
2021/06/12 09:29:04;;;;;;;11.82;7.82;;;21.50;99.90;;;;;;4131346;28;20474;-80
2021/06/12 09:31:26;;;;;;;12.73;9.43;;;21.60;99.90;;;;;;4127020;28;20410;-80
2021/06/12 09:33:34;;;;;;;14.32;9.70;;;21.60;99.90;;;;;;4140428;28;20721;-80
2021/06/12 09:35:42;;;;;;;16.20;10.48;;;21.60;99.90;;;;;;4142356;28;20037;-80
2021/06/12 09:37:45;;;;;;;14.80;11.15;;;21.70;99.90;;;;;;4151926;28;20042;-80
2021/06/12 09:40:11;;;;;;;14.13;9.50;;;21.80;99.90;;;;;;4144256;28;20034;-80
2021/06/12 09:42:33;;;;;;;13.43;9.65;;;21.80;99.90;;;;;;4129198;28;20038;-80
2021/06/12 09:44:37;;;;;;;12.05;9.40;;;21.90;99.90;;;;;;4139558;28;20125;-80
2021/06/12 09:46:41;;;;;;;16.10;11.00;;;22.00;99.90;;;;;;4141081;28;20060;-80
2021/06/12 09:48:55;;;;;;;14.50;10.20;;;22.00;99.90;;;;;;4143699;28;20045;-80
2021/06/12 09:51:14;;;;;;;12.18;9.48;;;22.00;99.90;;;;;;4151522;28;20050;-80
2021/06/12 09:53:37;;;;;;;14.80;10.98;;;21.90;99.90;;;;;;4129138;28;20027;-80
2021/06/12 09:55:38;;;;;;;12.35;9.52;;;21.90;99.90;;;;;;4144278;28;20037;-80
2021/06/12 09:57:47;;;;;;;13.20;8.88;;;21.80;99.90;;;;;;4144067;28;20471;-80
2021/06/12 09:59:53;;;;;;;12.05;9.32;;;21.90;99.90;;;;;;4144114;28;20045;-80
2021/06/12 10:01:59;;;;;;;14.15;9.75;;;21.80;99.90;;;;;;4146913;28;20018;-80
2021/06/12 10:04:12;;;;;;;18.50;11.23;;;21.80;99.90;;;;;;4147730;28;20030;-80
2021/06/12 10:06:23;;;;;;;14.88;9.30;;;21.80;99.90;;;;;;4143938;28;20466;-80
2021/06/12 10:08:24;;;;;;;13.75;10.95;;;21.80;99.90;;;;;;4150922;28;20040;-80
2021/06/12 10:10:24;;;;;;;15.60;11.27;;;21.70;99.90;;;;;;4128622;28;20391;-80
2021/06/12 10:12:28;;;;;;;12.40;9.23;;;21.70;99.90;;;;;;4149583;28;20064;-80
2021/06/12 10:14:29;;;;;;;14.95;9.73;;;21.70;99.90;;;;;;4129814;28;20557;-80
2021/06/12 10:16:32;;;;;;;13.77;9.43;;;21.60;99.90;;;;;;4143790;28;20070;-80
2021/06/12 10:18:34;;;;;;;;;;;21.70;99.90;;;;;;4134707;28;20613;-80
2021/06/12 10:20:37;;;;;;;11.30;8.02;;;21.70;99.90;;;;;;4134307;28;19914;-80
2021/06/12 10:22:43;;;;;;;12.20;8.50;;;21.80;99.90;;;;;;4123400;28;20041;-80
2021/06/12 10:24:43;;;;;;;12.68;8.75;;;21.80;99.90;;;;;;4141390;28;20544;-80
2021/06/12 10:26:44;;;;;;;12.20;8.65;;;21.90;99.90;;;;;;4146053;28;20030;-80
2021/06/12 10:28:45;;;;;;;11.88;9.52;;;21.90;99.90;;;;;;4143952;28;20064;-80
2021/06/12 10:30:46;;;;;;;12.30;9.05;;;22.00;99.90;;;;;;4127834;28;20040;-80
2021/06/12 10:32:51;;;;;;;19.15;9.90;;;22.00;99.90;;;;;;4145336;28;20522;-80
2021/06/12 10:34:53;;;;;;;11.13;8.35;;;22.10;99.90;;;;;;4143951;28;20673;-80
2021/06/12 10:37:08;;;;;;;12.82;9.15;;;22.00;99.90;;;;;;4147419;28;20418;-80